logo tempoitalia

Diretta Meteo Coleman, Stati Uniti (USA)lunedì 31 agosto ore 01:35

Mappa
Sereno 27 °C Sereno 24 Ore: T.min 22 T.max 38
Ponente Sud/Sud-Est Km/h 7.4 Punto di rugiada: 16 °C Umidità: 50% Visibilità: 10 Km
Il sole sorge alle: 07:12 Il sole tramonta alle: 20:02
31 Agosto 2026 01:35 tempo osservato: Sereno Sereno 27 50 1016 vento: Nord S/SE 7.4
31 Agosto 2026 01:15 tempo osservato: Sereno Sereno 28 48 1016 vento: Nord S 7.4
31 Agosto 2026 00:55 tempo osservato: Sereno Sereno 28 48 1016 vento: Nord S/SE 9.3
31 Agosto 2026 00:35 tempo osservato: Sereno Sereno 28 48 1016 vento: Nord S/SE 11.1
31 Agosto 2026 00:15 tempo osservato: Sereno Sereno 29 45 1016 vento: Nord S/SE 11.1
30 Agosto 2026 23:55 tempo osservato: Sereno Sereno 29 45 1016 vento: Nord S/SE 13
30 Agosto 2026 23:35 tempo osservato: Sereno Sereno 29 45 1016 vento: Nord S/SE 13
30 Agosto 2026 23:15 tempo osservato: Sereno Sereno 30 42 1016 vento: Nord S/SE 13
30 Agosto 2026 22:55 tempo osservato: Sereno Sereno 30 42 1016 vento: Nord S/SE 16.7
30 Agosto 2026 22:35 tempo osservato: Sereno Sereno 30 40 1016 vento: Nord S/SE 16.7
30 Agosto 2026 22:15 tempo osservato: Sereno Sereno 31 35 1015 vento: Nord S/SE 16.7
30 Agosto 2026 21:55 tempo osservato: Sereno Sereno 31 33 1015 vento: Nord S/SE 16.7
30 Agosto 2026 21:35 tempo osservato: Sereno Sereno 31 33 1015 vento: Nord SE 13
30 Agosto 2026 21:15 tempo osservato: Sereno Sereno 31 33 1014 vento: Nord SE 14.8
30 Agosto 2026 20:55 tempo osservato: Sereno Sereno 32 33 1014 vento: Nord SE 14.8
30 Agosto 2026 20:35 tempo osservato: Sereno Sereno 32 33 1014 vento: Nord SE 13
30 Agosto 2026 20:15 tempo osservato: Sereno Sereno 33 31 1014 vento: Nord SE 18.5
30 Agosto 2026 19:55 tempo osservato: Sereno Sereno 34 30 1014 vento: Nord SE 18.5
30 Agosto 2026 19:35 tempo osservato: Sereno Sereno 34 30 1014 vento: Nord SE 18.5
30 Agosto 2026 19:15 tempo osservato: Sereno Sereno 35 28 1013 vento: Nord SE 22.2
30 Agosto 2026 18:55 tempo osservato: Nuvoloso Nuvoloso 35 26 1013 vento: Nord SE 18.5
30 Agosto 2026 18:35 tempo osservato: Nuvoloso Nuvoloso 36 25 1013 vento: Nord S 13
30 Agosto 2026 18:15 tempo osservato: Nuvoloso Nuvoloso 37 22 1014 vento: Nord S/SE 11.1
30 Agosto 2026 17:55 tempo osservato: Nuvoloso Nuvoloso 37 23 1014 vento: Nord S/SE 20.3
30 Agosto 2026 17:35 tempo osservato: Sereno Sereno 37 23 1014 vento: Nord S 9.3
30 Agosto 2026 17:15 tempo osservato: Nuvoloso Nuvoloso 38 22 1014 vento: Nord S 14.8
30 Agosto 2026 16:55 tempo osservato: Nuvoloso Nuvoloso 37 23 1014 vento: Nord S 11.1
30 Agosto 2026 16:35 tempo osservato: Sereno Sereno 37 25 1014 vento: Nord S/SE 20.3
30 Agosto 2026 16:15 tempo osservato: Sereno Sereno 37 25 1014 vento: Nord S 13
30 Agosto 2026 15:55 tempo osservato: Nuvoloso Nuvoloso 37 25 1014 vento: Nord S 20.3
30 Agosto 2026 15:35 tempo osservato: Sereno Sereno 37 25 1015 vento: Nord N 0
30 Agosto 2026 15:15 tempo osservato: Sereno Sereno 37 25 1015 vento: Nord S 18.5
30 Agosto 2026 14:55 tempo osservato: Nuvoloso Nuvoloso 37 25 1016 vento: Nord S 14.8
30 Agosto 2026 14:35 tempo osservato: Nuvoloso Nuvoloso 36 28 1016 vento: Nord S 14.8
30 Agosto 2026 14:15 tempo osservato: Sereno Sereno 36 28 1016 vento: Nord S/SO 7.4
30 Agosto 2026 13:55 tempo osservato: Nuvoloso Nuvoloso 36 30 1016 vento: Nord S/SE 16.7
30 Agosto 2026 13:35 tempo osservato: Nuvoloso Nuvoloso 35 32 1017 vento: Nord S 9.3
30 Agosto 2026 13:15 tempo osservato: Nuvoloso Nuvoloso 35 34 1017 vento: Nord S 13
30 Agosto 2026 12:55 tempo osservato: Nuvoloso Nuvoloso 35 32 1017 vento: Nord S/SO 14.8
30 Agosto 2026 12:35 tempo osservato: Sereno Sereno 34 36 1018 vento: Nord N 5.5
30 Agosto 2026 12:15 tempo osservato: Sereno Sereno 34 38 1018 vento: Nord S 16.7
30 Agosto 2026 11:55 tempo osservato: Sereno Sereno 33 41 1018 vento: Nord S/SO 13
30 Agosto 2026 11:35 tempo osservato: Sereno Sereno 32 43 1018 vento: Nord S 20.3
30 Agosto 2026 11:15 tempo osservato: Sereno Sereno 32 43 1018 vento: Nord S 13
30 Agosto 2026 10:55 tempo osservato: Sereno Sereno 31 48 1018 vento: Nord SO 9.3
30 Agosto 2026 10:35 tempo osservato: Sereno Sereno 30 51 1018 vento: Nord S/SO 13
30 Agosto 2026 10:15 tempo osservato: Sereno Sereno 29 54 1018 vento: Nord SO 11.1
30 Agosto 2026 09:55 tempo osservato: Sereno Sereno 29 54 1018 vento: Nord S/SO 11.1
30 Agosto 2026 09:35 tempo osservato: Sereno Sereno 28 58 1018 vento: Nord SO 9.3
30 Agosto 2026 09:10 tempo osservato: Sereno Sereno 27 61 1018 vento: Nord S/SO 13
30 Agosto 2026 08:55 tempo osservato: Sereno Sereno 26 65 1018 vento: Nord SO 7.4
30 Agosto 2026 08:35 tempo osservato: Sereno Sereno 25 69 1018 vento: Nord N 5.5
30 Agosto 2026 08:15 tempo osservato: Sereno Sereno 24 73 1018 vento: Nord N 5.5
30 Agosto 2026 07:55 tempo osservato: Sereno Sereno 23 78 1018 vento: Nord S/SO 7.4
30 Agosto 2026 07:35 tempo osservato: Sereno Sereno 23 78 1018 vento: Nord N 0
30 Agosto 2026 07:10 tempo osservato: Sereno Sereno 22 78 1017 vento: Nord N 5.5
30 Agosto 2026 06:55 tempo osservato: Sereno Sereno 22 78 1017 vento: Nord S 7.4
30 Agosto 2026 06:35 tempo osservato: Sereno Sereno 23 73 1017 vento: Nord S 7.4
30 Agosto 2026 06:15 tempo osservato: Sereno Sereno 22 78 1017 vento: Nord S 7.4
30 Agosto 2026 05:55 tempo osservato: Sereno Sereno 22 78 1017 vento: Nord N 5.5
30 Agosto 2026 05:35 tempo osservato: Sereno Sereno 22 78 1017 vento: Nord S 7.4
30 Agosto 2026 05:15 tempo osservato: Sereno Sereno 23 73 1017 vento: Nord N 5.5
30 Agosto 2026 04:55 tempo osservato: Sereno Sereno 24 69 1017 vento: Nord N 5.5
30 Agosto 2026 04:35 tempo osservato: Sereno Sereno 24 69 1017 vento: Nord S/SO 7.4
30 Agosto 2026 04:15 tempo osservato: Sereno Sereno 24 64 1017 vento: Nord S/SO 7.4
30 Agosto 2026 03:55 tempo osservato: Sereno Sereno 25 61 1017 vento: Nord S 9.3
30 Agosto 2026 03:35 tempo osservato: Sereno Sereno 25 61 1017 vento: Nord S 7.4
30 Agosto 2026 03:15 tempo osservato: Sereno Sereno 25 61 1017 vento: Nord S 9.3
30 Agosto 2026 02:55 tempo osservato: Sereno Sereno 25 61 1017 vento: Nord S 7.4
30 Agosto 2026 02:35 tempo osservato: Nuvoloso Nuvoloso 25 61 1017 vento: Nord S 7.4
30 Agosto 2026 02:10 tempo osservato: Nuvoloso Nuvoloso 25 61 1017 vento: Nord N 5.5
30 Agosto 2026 01:55 tempo osservato: Sereno Sereno 26 57 1017 vento: Nord S 7.4
30 Agosto 2026 01:35 tempo osservato: Sereno Sereno 26 57 1017 vento: Nord S 7.4